Time;durP1;ratioP1;P1;durP2;ratioP2;P2;SDS_P1;SDS_P2;PMS_P1;PMS_P2;Temp;Humidity;BMP_temperature;BMP_pressure;BME280_temperature;BME280_humidity;BME280_pressure;Samples;Min_cycle;Max_cycle;Signal;HPM_P1;HPM_P2
2023/01/30 00:02:32;;;;;;;;;13.75;12.00;;;;;8.55;52.50;101314.53;146612;639;46016;-70
2023/01/30 00:05:32;;;;;;;;;16.25;14.50;;;;;8.55;52.31;101324.87;146611;581;47010;-70
2023/01/30 00:08:47;;;;;;;;;12.00;11.00;;;;;8.58;51.84;101319.03;146609;566;46016;-71
2023/01/30 00:11:53;;;;;;;;;11.50;9.25;;;;;6.04;51.69;100879.00;146615;682;47010;-73
2023/01/30 00:14:51;;;;;;;;;9.75;8.75;;;;;8.63;51.81;101327.97;146607;633;46025;-71
2023/01/30 00:17:55;;;;;;;;;12.75;11.25;;;;;6.50;52.10;100946.66;146613;595;46020;-70
2023/01/30 00:21:21;;;;;;;;;11.00;10.00;;;;;8.55;52.42;101340.38;146611;576;46017;-70
2023/01/30 00:24:36;;;;;;;;;;;;;;;;;;;;;
2023/01/30 00:27:32;;;;;;;;;24.75;24.00;;;;;8.82;52.25;101325.88;146614;601;46012;-69
2023/01/30 00:30:27;;;;;;;;;28.75;25.25;;;;;8.88;52.09;101322.78;146611;576;46021;-69
2023/01/30 00:33:23;;;;;;;;;27.50;24.75;;;;;8.92;51.22;101324.81;146610;569;46035;-69
2023/01/30 00:36:27;;;;;;;;;28.25;23.75;;;;;8.96;51.89;101313.88;146615;596;46010;-69
2023/01/30 00:39:21;;;;;;;;;30.50;25.75;;;;;9.01;51.83;101323.72;146611;634;47915;-68
2023/01/30 00:48:45;;;;;;;;;15.75;13.75;;;;;9.10;52.21;101312.22;146628;575;45010;-68
2023/01/30 00:51:59;;;;;;;;;14.00;10.75;;;;;9.08;52.14;101312.09;146632;564;45016;-68
2023/01/30 00:55:14;;;;;;;;;11.00;9.75;;;;;7.41;52.34;101026.94;146629;709;45914;-69
2023/01/30 00:58:18;;;;;;;;;10.75;10.75;;;;;9.01;52.71;101305.63;146629;598;45035;-69
2023/01/30 01:01:34;;;;;;;;;11.50;10.25;;;;;9.00;52.04;101308.09;146628;622;46010;-68
2023/01/30 01:04:30;;;;;;;;;14.75;13.50;;;;;9.00;50.98;101297.75;146628;585;46918;-69
2023/01/30 01:07:36;;;;;;;;;16.50;12.25;;;;;9.04;51.70;101299.75;146629;557;45020;-70
2023/01/30 01:10:46;;;;;;;;;9.25;8.25;;;;;9.06;51.78;101298.16;146634;576;45016;-69
2023/01/30 01:13:47;;;;;;;;;7.75;7.75;;;;;9.08;51.70;101301.75;146634;573;45915;-68
2023/01/30 01:16:52;;;;;;;;;10.75;7.75;;;;;9.12;51.53;101301.16;146631;587;45016;-70
2023/01/30 01:20:11;;;;;;;;;10.75;9.50;;;;;9.10;51.50;101297.59;146635;578;45010;-70
2023/01/30 01:23:18;;;;;;;;;;;;;;;;;;;;;
2023/01/30 01:26:21;;;;;;;;;9.00;7.25;;;;;9.11;51.43;101295.88;146627;570;46010;-69
2023/01/30 01:29:26;;;;;;;;;10.00;7.25;;;;;9.12;51.40;101295.09;146637;632;45014;-69
2023/01/30 01:32:21;;;;;;;;;11.00;9.00;;;;;9.13;51.23;101289.12;146634;570;45020;-69
2023/01/30 01:35:30;;;;;;;;;12.00;8.25;;;;;9.11;51.58;101276.09;146632;564;45016;-70
2023/01/30 01:38:39;;;;;;;;;;;;;;;;;;;;;
2023/01/30 01:41:44;;;;;;;;;11.00;11.00;;;;;9.17;52.38;101278.19;146629;569;45030;-68
2023/01/30 01:45:04;;;;;;;;;14.00;11.25;;;;;7.56;52.44;100994.44;146620;601;46010;-70
2023/01/30 01:48:47;;;;;;;;;20.00;18.25;;;;;7.66;53.23;101010.53;146625;633;46014;-69
2023/01/30 01:52:03;;;;;;;;;15.00;14.00;;;;;9.17;53.18;101275.59;146631;594;45913;-68
2023/01/30 01:55:14;;;;;;;;;12.75;12.25;;;;;9.15;52.55;101272.88;146627;576;45016;-70
2023/01/30 01:58:18;;;;;;;;;14.25;12.50;;;;;9.14;52.75;101262.44;146626;569;45021;-71
2023/01/30 02:01:16;;;;;;;;;19.25;17.00;;;;;9.12;52.47;101262.34;146628;612;46016;-74
2023/01/30 02:07:55;;;;;;;;;13.50;12.00;;;;;9.06;52.79;101256.75;146628;664;45914;-72
2023/01/30 02:11:48;;;;;;;;;10.50;9.50;;;;;7.55;53.56;100999.50;146615;581;46028;-70
2023/01/30 02:15:21;;;;;;;;;14.25;13.25;;;;;7.16;53.92;100942.75;146628;644;45017;-71
2023/01/30 02:18:17;;;;;;;;;12.25;11.50;;;;;8.82;54.45;101243.13;146629;596;46012;-72
2023/01/30 02:22:07;;;;;;;;;12.00;11.50;;;;;6.87;54.41;100909.78;146630;587;45012;-74
2023/01/30 02:25:35;;;;;;;;;12.50;10.75;;;;;8.71;54.12;101241.50;146633;582;45020;-75
2023/01/30 02:29:06;;;;;;;;;9.25;7.00;;;;;8.55;54.30;101242.16;146629;601;45017;-74
2023/01/30 02:32:46;;;;;;;;;10.25;8.50;;;;;8.42;55.27;101235.28;146634;605;46010;-75
2023/01/30 02:36:26;;;;;;;;;9.50;8.00;;;;;8.29;55.26;101230.94;146634;589;45017;-74
2023/01/30 02:40:08;;;;;;;;;;;;;;;;;;;;;
2023/01/30 02:43:43;;;;;;;;;9.25;8.00;;;;;8.26;55.94;101235.00;146632;565;45017;-72
2023/01/30 02:47:14;;;;;;;;;21.75;17.00;;;;;8.24;55.95;101229.72;146618;582;46020;-71
2023/01/30 02:50:55;;;;;;;;;17.25;15.75;;;;;6.10;55.73;100864.88;146602;583;46014;-71
2023/01/30 02:54:19;;;;;;;;;30.25;25.00;;;;;8.24;55.68;101232.28;146603;577;46020;-70
2023/01/30 02:57:28;;;;;;;;;16.75;14.25;;;;;8.24;55.88;101223.66;146601;693;46013;-71
2023/01/30 03:01:10;;;;;;;;;11.25;9.00;;;;;8.23;57.02;101232.22;146608;663;46020;-70
2023/01/30 03:05:03;;;;;;;;;11.75;9.50;;;;;6.56;56.46;100947.09;146605;668;46015;-72
2023/01/30 03:08:50;;;;;;;;;12.25;11.00;;;;;6.45;57.23;100952.41;146606;668;46020;-72
2023/01/30 03:12:13;;;;;;;;;8.50;8.25;;;;;7.95;57.11;101222.53;146606;657;47016;-72
2023/01/30 03:15:45;;;;;;;;;11.75;9.25;;;;;7.93;57.61;101230.97;146607;592;46010;-72
2023/01/30 03:19:05;;;;;;;;;12.25;8.75;;;;;7.94;58.65;101228.47;146611;690;45917;-71
2023/01/30 03:22:08;;;;;;;;;;;;;;;;;;;;;
2023/01/30 03:25:17;;;;;;;;;11.50;9.00;;;;;7.88;59.04;101222.88;146602;611;47012;-68
2023/01/30 03:28:20;;;;;;;;;12.75;11.25;;;;;7.82;59.42;101228.53;146613;634;46010;-69
2023/01/30 03:31:12;;;;;;;;;13.25;10.25;;;;;7.74;59.26;101214.19;146608;618;46014;-69
2023/01/30 03:34:30;;;;;;;;;11.75;10.25;;;;;7.06;58.75;101100.16;146599;583;47013;-69
2023/01/30 03:37:33;;;;;;;;;10.50;9.50;;;;;7.69;59.42;101210.37;146606;669;46016;-69
2023/01/30 03:40:35;;;;;;;;;10.00;8.25;;;;;7.73;59.06;101208.94;146605;589;47012;-70
2023/01/30 03:43:54;;;;;;;;;8.25;8.00;;;;;6.22;58.72;100950.72;146609;600;46016;-69
2023/01/30 03:46:54;;;;;;;;;12.00;10.50;;;;;7.69;59.40;101209.50;146613;659;46010;-70
2023/01/30 03:50:01;;;;;;;;;11.75;10.50;;;;;7.65;59.17;101203.22;146606;603;46017;-71
2023/01/30 03:52:54;;;;;;;;;14.00;10.50;;;;;7.62;59.24;101195.25;146609;580;46010;-70
2023/01/30 03:55:54;;;;;;;;;17.00;13.25;;;;;7.61;59.62;101203.81;146609;588;46017;-71
2023/01/30 03:58:56;;;;;;;;;12.25;11.00;;;;;7.60;59.83;101189.09;146612;590;47010;-70
2023/01/30 04:01:58;;;;;;;;;16.25;12.25;;;;;7.58;60.05;101188.09;146613;584;46016;-71
2023/01/30 04:04:53;;;;;;;;;14.00;11.25;;;;;7.55;59.39;101200.78;146614;599;46021;-70
2023/01/30 04:08:05;;;;;;;;;17.25;12.75;;;;;5.94;59.18;100916.06;146611;751;47914;-71
2023/01/30 04:11:01;;;;;;;;;11.25;10.25;;;;;7.56;59.61;101200.88;146612;601;46010;-71
2023/01/30 04:14:05;;;;;;;;;10.50;9.50;;;;;7.57;59.65;101201.75;146607;577;46016;-71
2023/01/30 04:17:14;;;;;;;;;9.75;9.50;;;;;7.60;59.37;101201.97;146615;613;46020;-71
2023/01/30 04:20:23;;;;;;;;;10.50;10.25;;;;;7.62;59.70;101200.41;146604;613;46013;-70
2023/01/30 04:23:17;;;;;;;;;10.00;9.00;;;;;7.63;59.12;101204.78;146614;563;46029;-69
2023/01/30 04:26:16;;;;;;;;;11.50;9.50;;;;;7.61;59.60;101203.81;146607;616;47016;-70
2023/01/30 04:29:26;;;;;;;;;11.00;9.75;;;;;7.59;59.91;101205.38;146612;588;46020;-70
2023/01/30 04:32:30;;;;;;;;;12.50;12.50;;;;;7.58;60.07;101203.59;146612;580;46014;-71
2023/01/30 04:35:32;;;;;;;;;11.25;10.00;;;;;6.79;59.55;101052.72;146607;597;46012;-72
2023/01/30 04:38:49;;;;;;;;;;;;;;;;;;;;;
2023/01/30 04:41:55;;;;;;;;;13.25;11.50;;;;;7.66;60.32;101205.00;146611;577;46021;-74
2023/01/30 04:44:53;;;;;;;;;12.00;10.75;;;;;7.58;60.12;101201.88;146607;563;46016;-74
2023/01/30 04:47:50;;;;;;;;;12.25;10.00;;;;;7.57;59.71;101209.50;146611;589;46020;-74
2023/01/30 04:51:07;;;;;;;;;13.25;10.00;;;;;7.53;59.66;101202.34;146611;604;46027;-72
2023/01/30 04:54:05;;;;;;;;;17.25;15.50;;;;;7.51;59.89;101202.25;146615;563;46010;-72
2023/01/30 04:57:20;;;;;;;;;16.00;11.00;;;;;5.29;59.45;100822.97;146610;635;46016;-73
2023/01/30 05:00:20;;;;;;;;;13.75;11.00;;;;;7.48;60.46;101201.16;146611;576;47022;-72
2023/01/30 05:03:22;;;;;;;;;10.75;10.75;;;;;7.45;60.61;101201.81;146608;581;46035;-73
2023/01/30 05:06:26;;;;;;;;;12.75;11.00;;;;;5.25;59.84;100815.81;146614;564;46012;-69
2023/01/30 05:09:33;;;;;;;;;11.75;9.00;;;;;7.39;60.48;101202.28;146610;627;46016;-70
2023/01/30 05:12:38;;;;;;;;;17.25;11.25;;;;;7.38;60.52;101203.06;146610;563;46010;-71
2023/01/30 05:15:34;;;;;;;;;15.50;13.50;;;;;7.39;60.91;101207.44;146612;579;46012;-70
2023/01/30 05:18:35;;;;;;;;;18.75;15.25;;;;;7.37;60.63;101205.53;146614;617;46011;-71
2023/01/30 05:21:54;;;;;;;;;13.50;12.00;;;;;7.33;60.78;101206.09;146609;583;46016;-71
2023/01/30 05:24:49;;;;;;;;;16.50;15.00;;;;;7.27;60.54;101209.13;146612;565;46021;-71
2023/01/30 05:28:23;;;;;;;;;;;;;;;;;;;;;
2023/01/30 05:31:25;;;;;;;;;12.00;10.75;;;;;7.12;61.02;101214.06;146615;584;46010;-70
2023/01/30 05:34:28;;;;;;;;;;;;;;;;;;;;;
2023/01/30 05:37:42;;;;;;;;;10.00;9.00;;;;;7.06;61.26;101212.72;146616;634;46031;-70
2023/01/30 05:40:43;;;;;;;;;13.00;10.25;;;;;7.09;60.73;101215.53;146607;578;47917;-71
2023/01/30 05:43:51;;;;;;;;;13.50;12.50;;;;;7.14;60.82;101224.50;146608;640;47010;-71
2023/01/30 05:47:09;;;;;;;;;11.00;9.00;;;;;5.58;59.86;100946.00;146612;637;46013;-70
2023/01/30 05:50:01;;;;;;;;;11.75;9.50;;;;;7.18;60.33;101222.25;146614;591;46020;-70
2023/01/30 05:52:59;;;;;;;;;11.25;9.50;;;;;7.25;60.47;101226.16;146603;589;46016;-71
2023/01/30 05:56:10;;;;;;;;;11.00;9.00;;;;;7.27;59.75;101227.19;146611;581;46024;-71
2023/01/30 05:59:23;;;;;;;;;10.50;9.25;;;;;7.33;59.71;101230.22;146609;615;46016;-70
2023/01/30 06:02:31;;;;;;;;;14.00;12.00;;;;;7.39;60.48;101238.41;146612;566;46012;-70
2023/01/30 06:05:28;;;;;;;;;21.00;16.50;;;;;7.47;60.08;101238.94;146609;596;46014;-69
2023/01/30 06:08:31;;;;;;;;;20.00;15.75;;;;;7.54;60.25;101245.41;146612;598;46020;-69
2023/01/30 06:11:46;;;;;;;;;20.00;16.75;;;;;5.67;60.02;100917.47;146607;638;46016;-70
2023/01/30 06:14:41;;;;;;;;;50.50;38.75;;;;;7.56;60.34;101249.91;146608;564;46020;-71
2023/01/30 06:17:55;;;;;;;;;28.00;24.00;;;;;7.57;60.20;101245.62;146606;566;46017;-72
2023/01/30 06:21:01;;;;;;;;;27.75;22.25;;;;;7.64;60.31;101251.38;146615;599;46010;-71
2023/01/30 06:24:07;;;;;;;;;49.00;38.25;;;;;7.73;60.82;101253.72;146611;617;46012;-70
2023/01/30 06:27:14;;;;;;;;;32.50;28.00;;;;;7.72;60.27;101251.00;146612;576;46046;-70
2023/01/30 06:30:17;;;;;;;;;27.50;26.50;;;;;7.75;59.90;101258.97;146609;581;47016;-71
2023/01/30 06:33:17;;;;;;;;;31.50;26.00;;;;;7.74;59.12;101262.34;146613;571;48010;-71
2023/01/30 06:36:22;;;;;;;;;28.50;27.50;;;;;7.77;59.66;101265.16;146607;630;46033;-71
2023/01/30 06:39:36;;;;;;;;;31.50;28.50;;;;;5.74;59.29;100906.88;146612;604;46021;-71
2023/01/30 06:42:35;;;;;;;;;32.00;26.50;;;;;7.83;59.62;101256.16;146605;631;46016;-70
2023/01/30 06:45:43;;;;;;;;;28.00;23.75;;;;;7.94;59.73;101261.16;146612;603;46020;-70
2023/01/30 06:48:38;;;;;;;;;32.50;27.50;;;;;7.99;60.08;101263.28;146625;692;46010;-71
2023/01/30 06:51:41;;;;;;;;;31.75;30.00;;;;;8.02;60.25;101255.75;146616;564;46020;-71
2023/01/30 06:54:58;;;;;;;;;29.00;25.00;;;;;5.43;59.55;100798.28;146629;569;45917;-72
2023/01/30 06:58:06;;;;;;;;;23.50;21.00;;;;;8.31;60.43;101262.91;146628;575;46024;-72
2023/01/30 07:01:19;;;;;;;;;;;;;;;;;;;;;
2023/01/30 07:04:18;;;;;;;;;46.75;33.75;;;;;9.81;59.70;101274.56;146628;563;45912;-73
2023/01/30 07:08:01;;;;;;;;;;;;;;;;;;;;;
2023/01/30 07:11:04;;;;;;;;;26.75;21.00;;;;;10.69;52.85;101273.03;146629;588;46010;-72
2023/01/30 07:14:08;;;;;;;;;28.00;23.75;;;;;10.51;53.72;101261.56;146630;563;45012;-72
2023/01/30 07:17:13;;;;;;;;;27.75;24.50;;;;;10.34;53.17;101268.31;146628;572;45010;-72
2023/01/30 07:20:32;;;;;;;;;;;;;;;;;;;;;
2023/01/30 07:23:36;;;;;;;;;32.50;29.75;;;;;10.06;52.23;101279.56;146627;767;45021;-72
2023/01/30 07:26:40;;;;;;;;;39.00;33.50;;;;;9.91;53.84;101284.69;146627;606;45914;-72
2023/01/30 07:29:59;;;;;;;;;44.25;33.00;;;;;9.84;54.86;101279.00;146628;628;45020;-72
2023/01/30 07:33:16;;;;;;;;;39.50;32.75;;;;;9.80;55.13;101279.62;146626;570;45017;-75
2023/01/30 07:36:24;;;;;;;;;;;;;;;;;;;;;
2023/01/30 07:39:22;;;;;;;;;46.75;37.25;;;;;9.82;54.35;101278.03;146623;577;46016;-74
2023/01/30 07:42:22;;;;;;;;;47.25;35.00;;;;;9.79;54.16;101281.31;146627;598;45912;-74
2023/01/30 07:45:39;;;;;;;;;50.25;37.50;;;;;9.73;54.27;101273.16;146627;631;46917;-72
2023/01/30 07:48:38;;;;;;;;;41.25;32.25;;;;;9.71;54.14;101273.06;146627;597;46010;-71
2023/01/30 07:51:35;;;;;;;;;39.00;33.00;;;;;9.75;55.16;101265.47;146626;563;45912;-81
2023/01/30 07:54:39;;;;;;;;;36.25;30.00;;;;;7.61;55.10;100913.06;146628;611;46011;-72
2023/01/30 07:57:40;;;;;;;;;30.50;24.75;;;;;9.87;54.80;101269.72;146623;633;45912;-71
2023/01/30 08:00:39;;;;;;;;;33.25;29.00;;;;;10.01;55.16;101268.03;146627;671;45020;-68
2023/01/30 08:03:48;;;;;;;;;;;;;;;;;;;;;
2023/01/30 08:06:56;;;;;;;;;;;;;;;;;;;;;
2023/01/30 08:10:05;;;;;;;;;16.25;13.50;;;;;9.10;53.43;101010.44;146625;580;46012;-66
2023/01/30 08:13:10;;;;;;;;;24.00;22.00;;;;;10.84;54.13;101263.56;146627;573;45020;-71
2023/01/30 08:16:10;;;;;;;;;18.75;14.50;;;;;11.03;54.31;101259.47;146624;645;45861;-74
2023/01/30 08:19:13;;;;;;;;;16.00;13.00;;;;;11.23;55.38;101252.81;146623;571;45020;-71
2023/01/30 08:22:08;;;;;;;;;14.50;13.25;;;;;11.49;56.59;101257.75;146621;570;48915;-72
2023/01/30 08:25:16;;;;;;;;;19.00;17.50;;;;;11.79;52.94;101242.09;146629;622;45020;-71
2023/01/30 08:28:20;;;;;;;;;16.25;14.25;;;;;12.10;49.78;101246.38;146627;611;45016;-73
2023/01/30 08:31:30;;;;;;;;;15.50;13.25;;;;;12.44;50.76;101243.84;146633;623;45011;-74
2023/01/30 08:34:42;;;;;;;;;;;;;;;;;;;;;
2023/01/30 08:37:55;;;;;;;;;14.25;12.75;;;;;11.77;50.91;100994.28;146628;590;45021;-72
2023/01/30 08:41:03;;;;;;;;;15.75;12.50;;;;;13.36;48.60;101240.66;146628;614;46012;-68
2023/01/30 08:44:16;;;;;;;;;17.75;14.00;;;;;13.43;50.35;101237.53;146629;573;46010;-70
2023/01/30 08:47:41;;;;;;;;;21.25;18.00;;;;;12.03;48.92;100993.03;146617;591;46016;-70
2023/01/30 08:51:16;;;;;;;;;15.50;14.75;;;;;11.77;48.16;100966.63;146615;568;46010;-69
2023/01/30 08:54:25;;;;;;;;;17.25;16.25;;;;;11.85;47.39;100986.94;146611;622;46016;-77
2023/01/30 08:57:40;;;;;;;;;16.50;13.75;;;;;11.75;47.45;100963.06;146615;593;46020;-77
2023/01/30 09:00:50;;;;;;;;;13.50;11.00;;;;;13.42;44.65;101235.72;146610;567;46016;-78
2023/01/30 09:03:51;;;;;;;;;14.00;12.00;;;;;13.46;44.56;101223.75;146613;641;46020;-77
2023/01/30 09:06:50;;;;;;;;;19.75;14.50;;;;;13.49;44.99;101226.50;146607;617;47015;-77
2023/01/30 09:09:57;;;;;;;;;;;;;;;;;;;;;
2023/01/30 09:13:16;;;;;;;;;13.50;12.75;;;;;13.63;45.30;101221.13;146609;705;46012;-77
2023/01/30 09:16:21;;;;;;;;;14.25;11.00;;;;;12.09;44.73;100961.28;146611;571;47010;-77
2023/01/30 09:19:40;;;;;;;;;10.25;10.25;;;;;13.65;46.56;101213.37;146607;573;46916;-78
2023/01/30 09:22:34;;;;;;;;;12.50;11.50;;;;;13.83;44.43;101210.72;146614;571;46011;-76
2023/01/30 09:25:37;;;;;;;;;17.00;13.00;;;;;14.02;44.29;101205.53;146609;564;46016;-78
2023/01/30 09:28:33;;;;;;;;;15.25;12.00;;;;;14.11;42.29;101199.81;146613;606;46021;-73
2023/01/30 09:31:37;;;;;;;;;9.75;9.75;;;;;14.09;43.29;101193.66;146612;642;46012;-75
2023/01/30 09:34:38;;;;;;;;;12.50;9.50;;;;;14.07;41.54;101187.47;146611;584;46020;-79
2023/01/30 09:37:34;;;;;;;;;11.75;9.25;;;;;14.06;41.87;101178.75;146609;598;46916;-76
2023/01/30 09:41:24;;;;;;;;;13.75;10.50;;;;;12.07;43.54;100822.53;146613;678;47010;-81
2023/01/30 09:45:02;;;;;;;;;16.00;14.50;;;;;14.14;43.09;101176.47;146609;569;47012;-76
2023/01/30 09:48:35;;;;;;;;;11.75;10.75;;;;;14.12;42.31;101159.88;146607;563;46010;-79
2023/01/30 09:51:49;;;;;;;;;14.00;11.50;;;;;14.05;40.93;101148.31;146598;604;46915;-76
2023/01/30 09:54:48;;;;;;;;;12.50;11.25;;;;;13.95;41.27;101150.41;146605;590;46010;-78
2023/01/30 09:57:51;;;;;;;;;12.75;12.25;;;;;13.97;44.54;101138.34;146600;587;46025;-78
2023/01/30 10:00:48;;;;;;;;;17.50;15.25;;;;;14.17;41.59;101134.87;146606;579;46020;-79
2023/01/30 10:04:24;;;;;;;;;10.25;8.75;;;;;14.33;41.61;101134.72;146599;566;47016;-77
2023/01/30 10:08:05;;;;;;;;;14.00;11.75;;;;;14.37;44.22;101127.94;146606;593;46011;-80
2023/01/30 10:11:38;;;;;;;;;11.50;10.50;;;;;14.37;43.90;101114.87;146598;579;47012;-78
2023/01/30 10:15:19;;;;;;;;;16.00;14.25;;;;;12.95;42.35;100856.88;146602;715;47011;-77
2023/01/30 10:19:16;;;;;;;;;;;;;;;;;;;;;
2023/01/30 10:22:51;;;;;;;;;11.75;11.00;;;;;13.37;39.37;100844.84;146607;615;46019;-78
2023/01/30 10:26:33;;;;;;;;;13.75;11.75;;;;;14.22;42.86;100982.09;146600;572;46016;-78
2023/01/30 10:29:36;;;;;;;;;10.50;9.00;;;;;14.79;39.80;101073.12;146611;584;45581;-78
2023/01/30 10:32:54;;;;;;;;;13.75;10.75;;;;;14.85;40.63;101064.63;146602;625;46012;-78
2023/01/30 10:36:32;;;;;;;;;14.25;13.00;;;;;14.92;42.10;101051.91;146600;591;47010;-76
2023/01/30 10:39:56;;;;;;;;;14.50;11.00;;;;;14.93;42.05;101044.97;146604;606;46016;-77
2023/01/30 10:43:38;;;;;;;;;13.75;10.25;;;;;13.11;42.78;100726.53;146603;612;46020;-79
2023/01/30 10:47:23;;;;;;;;;14.25;13.00;;;;;12.93;41.41;100681.56;146600;678;46016;-78
2023/01/30 10:50:57;;;;;;;;;14.00;12.75;;;;;15.07;41.17;101035.03;146604;587;46020;-78
2023/01/30 10:54:36;;;;;;;;;10.00;8.75;;;;;13.69;39.55;100794.88;146602;673;46016;-77
2023/01/30 10:58:22;;;;;;;;;14.75;14.50;;;;;13.50;41.07;100767.19;146605;633;46020;-79
2023/01/30 11:01:57;;;;;;;;;10.50;9.50;;;;;14.95;40.44;101014.53;146601;625;47914;-77
2023/01/30 11:05:20;;;;;;;;;13.25;12.50;;;;;14.94;40.23;101011.06;146603;722;46020;-78
2023/01/30 11:08:41;;;;;;;;;11.75;10.50;;;;;15.00;39.81;100999.97;146598;565;46017;-77
2023/01/30 11:12:00;;;;;;;;;11.75;9.75;;;;;15.04;39.29;100990.50;146607;579;46010;-80
2023/01/30 11:15:23;;;;;;;;;11.00;9.00;;;;;13.68;38.15;100754.00;146604;602;46012;-79
2023/01/30 11:19:01;;;;;;;;;13.50;10.50;;;;;12.45;40.04;100562.50;146610;596;46010;-77
2023/01/30 11:22:03;;;;;;;;;15.25;13.00;;;;;14.94;37.48;100994.50;146604;630;46012;-78
2023/01/30 11:25:28;;;;;;;;;11.75;10.25;;;;;12.37;40.08;100555.25;146603;597;46020;-78
2023/01/30 11:28:42;;;;;;;;;11.00;11.00;;;;;14.83;37.00;100981.06;146602;618;46017;-77
2023/01/30 11:32:06;;;;;;;;;16.00;13.75;;;;;13.32;39.65;100717.84;146603;594;46020;-78
2023/01/30 11:35:38;;;;;;;;;11.25;10.25;;;;;14.64;37.31;100973.31;146597;629;47012;-78
2023/01/30 11:38:40;;;;;;;;;9.25;8.75;;;;;14.27;38.12;100962.31;146599;577;46012;-78
2023/01/30 11:41:38;;;;;;;;;8.75;8.00;;;;;14.09;37.39;100967.69;146606;586;46021;-78
2023/01/30 11:44:41;;;;;;;;;9.25;9.00;;;;;13.94;37.05;100960.94;146605;584;46010;-80
2023/01/30 11:47:54;;;;;;;;;;;;;;;;;;;;;
2023/01/30 11:51:03;;;;;;;;;;;;;;;;;;;;;
2023/01/30 11:54:48;;;;;;;;;12.00;9.75;;;;;11.55;40.66;100600.16;146599;616;47012;-78
2023/01/30 11:58:09;;;;;;;;;9.25;8.00;;;;;13.32;39.29;100932.28;146607;632;46010;-79
2023/01/30 12:01:40;;;;;;;;;15.50;14.00;;;;;13.17;39.55;100926.38;146600;611;46012;-78
2023/01/30 12:04:42;;;;;;;;;19.50;14.50;;;;;13.06;40.28;100923.31;146605;586;46021;-79
2023/01/30 12:07:45;;;;;;;;;9.00;9.00;;;;;13.08;40.17;100920.75;146602;643;47012;-79
2023/01/30 12:10:49;;;;;;;;;14.00;11.00;;;;;12.04;40.42;100723.62;146602;643;46020;-80
2023/01/30 12:13:46;;;;;;;;;11.75;10.25;;;;;13.33;40.08;100917.53;146604;564;46017;-78
2023/01/30 12:17:26;;;;;;;;;16.25;13.50;;;;;13.50;41.34;100913.97;146606;604;47010;-75
2023/01/30 12:20:58;;;;;;;;;18.50;14.00;;;;;13.53;39.83;100911.47;146604;616;46017;-77
2023/01/30 12:24:36;;;;;;;;;19.75;16.50;;;;;13.48;42.49;100918.19;146605;592;46012;-78
2023/01/30 12:28:25;;;;;;;;;18.25;16.50;;;;;13.55;41.62;100912.44;146598;638;46013;-79
2023/01/30 12:31:45;;;;;;;;;18.75;17.75;;;;;13.48;39.60;100905.19;146602;574;46010;-78
2023/01/30 12:34:46;;;;;;;;;28.25;23.00;;;;;13.34;40.04;100902.00;146598;574;47012;-78
2023/01/30 12:38:12;;;;;;;;;32.50;27.75;;;;;13.26;43.15;100907.69;146603;620;46035;-79
2023/01/30 12:41:57;;;;;;;;;19.50;15.50;;;;;13.02;42.42;100884.97;146601;576;46016;-78
2023/01/30 12:45:34;;;;;;;;;22.75;21.00;;;;;13.05;43.54;100910.22;146600;685;47021;-79
2023/01/30 12:49:11;;;;;;;;;21.00;18.25;;;;;11.68;41.77;100666.53;146602;637;46016;-78
2023/01/30 12:53:02;;;;;;;;;18.50;17.50;;;;;12.78;42.20;100878.66;146602;610;47012;-79
2023/01/30 12:56:45;;;;;;;;;22.75;20.25;;;;;10.79;44.18;100563.78;146599;599;46033;-78
2023/01/30 13:00:08;;;;;;;;;22.00;18.00;;;;;11.19;44.74;100636.59;146603;600;46010;-78
2023/01/30 13:03:34;;;;;;;;;12.50;11.50;;;;;12.81;44.09;100897.91;146599;584;46016;-78
2023/01/30 13:07:13;;;;;;;;;22.25;18.00;;;;;12.85;42.97;100876.38;146604;595;46021;-77
2023/01/30 13:10:56;;;;;;;;;13.00;13.00;;;;;12.97;44.04;100885.56;146598;598;47012;-79
2023/01/30 13:14:26;;;;;;;;;12.75;12.50;;;;;13.26;44.29;100881.66;146606;614;46010;-78
2023/01/30 13:17:58;;;;;;;;;13.75;12.00;;;;;12.30;43.57;100634.69;146600;626;46016;-77
2023/01/30 13:21:21;;;;;;;;;10.25;8.50;;;;;13.71;43.20;100861.84;146604;736;46021;-80
2023/01/30 13:25:02;;;;;;;;;20.75;17.25;;;;;12.41;44.03;100651.63;146601;586;46910;-79
2023/01/30 13:28:10;;;;;;;;;14.75;13.00;;;;;13.54;42.31;100881.09;146606;659;47010;-79
2023/01/30 13:31:28;;;;;;;;;17.75;16.75;;;;;13.36;42.77;100879.53;146702;569;47012;-79
2023/01/30 13:34:57;;;;;;;;;24.00;20.75;;;;;13.39;43.01;100866.63;146612;576;46016;-78
2023/01/30 13:38:09;;;;;;;;;;;;;;;;;;;;;
2023/01/30 13:41:07;;;;;;;;;22.75;16.25;;;;;13.26;43.30;100853.00;146611;597;46034;-78
2023/01/30 13:44:05;;;;;;;;;32.75;27.75;;;;;13.33;44.02;100858.56;146615;576;46013;-79
2023/01/30 13:47:20;;;;;;;;;24.50;21.75;;;;;13.68;43.26;100853.03;146610;569;47012;-77
2023/01/30 13:50:58;;;;;;;;;15.75;14.00;;;;;14.26;43.18;100853.59;146616;583;46010;-78
2023/01/30 13:54:36;;;;;;;;;14.25;12.25;;;;;14.78;42.84;100836.41;146612;615;46012;-80
2023/01/30 13:58:13;;;;;;;;;9.75;9.75;;;;;13.46;43.26;100556.91;146614;635;46022;-77
2023/01/30 14:01:12;;;;;;;;;11.25;11.25;;;;;15.12;39.74;100842.81;146615;569;47017;-78
2023/01/30 14:04:45;;;;;;;;;16.00;15.75;;;;;13.73;41.10;100590.88;146611;635;47010;-79
2023/01/30 14:07:45;;;;;;;;;12.25;10.50;;;;;15.18;40.42;100835.22;146611;618;47033;-73
2023/01/30 14:10:49;;;;;;;;;20.00;15.75;;;;;15.15;40.22;100828.16;146615;581;47020;-77
2023/01/30 14:14:39;;;;;;;;;;;;;;;;;;;;;
2023/01/30 14:17:56;;;;;;;;;18.00;15.00;;;;;15.13;40.14;100821.09;146611;614;46012;-76
2023/01/30 14:21:25;;;;;;;;;16.00;14.75;;;;;15.19;39.95;100818.69;146613;605;46012;-71
2023/01/30 14:24:30;;;;;;;;;18.75;17.00;;;;;15.11;40.18;100820.13;146612;619;46020;-78
2023/01/30 14:27:48;;;;;;;;;26.50;21.50;;;;;14.75;40.12;100812.81;146610;570;47012;-71
2023/01/30 14:31:06;;;;;;;;;22.50;21.00;;;;;14.27;41.57;100834.50;146612;569;47012;-72
2023/01/30 14:35:03;;;;;;;;;25.50;22.50;;;;;13.13;42.50;100690.16;146609;577;47012;-70
2023/01/30 14:38:28;;;;;;;;;15.00;13.00;;;;;13.37;43.15;100778.84;146618;585;46010;-77
2023/01/30 14:41:56;;;;;;;;;25.25;23.25;;;;;13.16;43.15;100784.00;146610;583;46012;-76
2023/01/30 14:45:47;;;;;;;;;32.25;28.75;;;;;13.03;43.07;100798.22;146615;587;46020;-77
2023/01/30 14:49:09;;;;;;;;;19.00;14.50;;;;;12.70;43.81;100782.03;146613;621;46016;-78
2023/01/30 14:52:48;;;;;;;;;31.25;28.75;;;;;12.73;45.40;100820.31;146614;702;46021;-77
2023/01/30 14:55:43;;;;;;;;;24.25;18.75;;;;;12.66;43.81;100816.56;146611;565;46016;-78
2023/01/30 14:59:02;;;;;;;;;25.00;25.00;;;;;12.40;45.10;100786.81;146613;665;46021;-77
2023/01/30 15:02:47;;;;;;;;;21.50;17.50;;;;;12.46;45.58;100821.78;146610;617;47913;-77
2023/01/30 15:05:54;;;;;;;;;24.75;22.00;;;;;12.35;45.14;100824.69;146611;610;46021;-76
2023/01/30 15:08:57;;;;;;;;;40.25;32.50;;;;;12.18;45.60;100811.84;146610;604;46016;-77
2023/01/30 15:12:18;;;;;;;;;44.25;32.75;;;;;12.19;45.90;100826.59;146615;616;46020;-76
2023/01/30 15:16:03;;;;;;;;;20.50;18.25;;;;;11.89;45.24;100792.25;146615;590;45019;-75
2023/01/30 15:20:01;;;;;;;;;27.00;23.50;;;;;11.49;46.61;100766.94;146612;660;46010;-76
2023/01/30 15:23:40;;;;;;;;;;;;;;;;;;;;;
2023/01/30 15:27:16;;;;;;;;;47.50;35.75;;;;;11.60;46.69;100826.34;146616;593;46010;-76
2023/01/30 15:30:59;;;;;;;;;50.50;40.75;;;;;11.51;46.77;100839.75;146617;578;46014;-76
2023/01/30 15:34:09;;;;;;;;;58.00;46.00;;;;;11.41;46.22;100837.53;146622;574;46020;-75
2023/01/30 15:37:34;;;;;;;;;61.25;47.00;;;;;9.63;46.35;100539.00;146617;603;46016;-76
2023/01/30 15:40:50;;;;;;;;;50.75;41.00;;;;;10.65;46.92;100729.06;146619;586;46020;-76
2023/01/30 15:44:38;;;;;;;;;35.25;30.00;;;;;9.53;47.97;100560.00;146614;606;47017;-76